sensor_id;sensor_type;location;lat;lon;timestamp;P1;durP1;ratioP1;P2;durP2;ratioP2
68633;SDS011;55625;47.072;22.192;2023-04-15T00:01:26;1.75;;;0.60;;
68633;SDS011;55625;47.072;22.192;2023-04-15T00:03:53;1.63;;;0.73;;
68633;SDS011;55625;47.072;22.192;2023-04-15T00:06:20;3.53;;;0.95;;
68633;SDS011;55625;47.072;22.192;2023-04-15T00:08:46;3.42;;;1.23;;
68633;SDS011;55625;47.072;22.192;2023-04-15T00:11:13;1.58;;;0.82;;
68633;SDS011;55625;47.072;22.192;2023-04-15T00:13:39;2.47;;;1.80;;
68633;SDS011;55625;47.072;22.192;2023-04-15T00:16:06;3.53;;;1.17;;
68633;SDS011;55625;47.072;22.192;2023-04-15T00:18:33;6.25;;;1.75;;
68633;SDS011;55625;47.072;22.192;2023-04-15T00:20:59;1.52;;;0.52;;
68633;SDS011;55625;47.072;22.192;2023-04-15T00:23:26;2.85;;;0.77;;
68633;SDS011;55625;47.072;22.192;2023-04-15T00:25:52;3.65;;;2.05;;
68633;SDS011;55625;47.072;22.192;2023-04-15T00:28:19;2.13;;;1.07;;
68633;SDS011;55625;47.072;22.192;2023-04-15T00:30:45;2.13;;;1.35;;
68633;SDS011;55625;47.072;22.192;2023-04-15T00:33:11;3.88;;;1.75;;
68633;SDS011;55625;47.072;22.192;2023-04-15T00:35:38;3.25;;;1.90;;
68633;SDS011;55625;47.072;22.192;2023-04-15T00:38:05;2.95;;;0.82;;
68633;SDS011;55625;47.072;22.192;2023-04-15T00:40:32;2.07;;;1.13;;
68633;SDS011;55625;47.072;22.192;2023-04-15T00:42:59;1.88;;;1.15;;
68633;SDS011;55625;47.072;22.192;2023-04-15T00:45:25;1.85;;;0.80;;
68633;SDS011;55625;47.072;22.192;2023-04-15T00:47:52;1.85;;;0.98;;
68633;SDS011;55625;47.072;22.192;2023-04-15T00:50:18;1.95;;;1.27;;
68633;SDS011;55625;47.072;22.192;2023-04-15T00:52:44;2.33;;;1.00;;
68633;SDS011;55625;47.072;22.192;2023-04-15T00:55:10;1.73;;;0.95;;
68633;SDS011;55625;47.072;22.192;2023-04-15T00:57:36;1.75;;;0.75;;
68633;SDS011;55625;47.072;22.192;2023-04-15T01:00:04;6.85;;;3.20;;
68633;SDS011;55625;47.072;22.192;2023-04-15T01:02:32;1.90;;;1.13;;
68633;SDS011;55625;47.072;22.192;2023-04-15T01:05:00;2.92;;;1.23;;
68633;SDS011;55625;47.072;22.192;2023-04-15T01:07:27;1.45;;;0.75;;
68633;SDS011;55625;47.072;22.192;2023-04-15T01:09:52;2.08;;;1.05;;
68633;SDS011;55625;47.072;22.192;2023-04-15T01:12:18;1.83;;;1.03;;
68633;SDS011;55625;47.072;22.192;2023-04-15T01:14:45;4.78;;;1.42;;
68633;SDS011;55625;47.072;22.192;2023-04-15T01:17:10;4.47;;;0.73;;
68633;SDS011;55625;47.072;22.192;2023-04-15T01:19:37;2.33;;;1.20;;
68633;SDS011;55625;47.072;22.192;2023-04-15T01:22:03;1.60;;;0.95;;
68633;SDS011;55625;47.072;22.192;2023-04-15T01:24:30;2.35;;;1.00;;
68633;SDS011;55625;47.072;22.192;2023-04-15T01:26:58;2.33;;;1.50;;
68633;SDS011;55625;47.072;22.192;2023-04-15T01:29:24;2.45;;;1.10;;
68633;SDS011;55625;47.072;22.192;2023-04-15T01:31:53;2.30;;;0.60;;
68633;SDS011;55625;47.072;22.192;2023-04-15T01:34:20;1.58;;;0.55;;
68633;SDS011;55625;47.072;22.192;2023-04-15T01:36:46;1.30;;;0.70;;
68633;SDS011;55625;47.072;22.192;2023-04-15T01:39:12;1.08;;;0.60;;
68633;SDS011;55625;47.072;22.192;2023-04-15T01:41:39;2.30;;;0.70;;
68633;SDS011;55625;47.072;22.192;2023-04-15T01:44:06;1.65;;;0.63;;
68633;SDS011;55625;47.072;22.192;2023-04-15T01:46:32;2.05;;;1.10;;
68633;SDS011;55625;47.072;22.192;2023-04-15T01:48:58;1.40;;;0.75;;
68633;SDS011;55625;47.072;22.192;2023-04-15T01:51:24;2.35;;;0.70;;
68633;SDS011;55625;47.072;22.192;2023-04-15T01:53:51;2.50;;;1.00;;
68633;SDS011;55625;47.072;22.192;2023-04-15T01:56:17;1.55;;;0.43;;
68633;SDS011;55625;47.072;22.192;2023-04-15T01:58:43;3.72;;;1.40;;
68633;SDS011;55625;47.072;22.192;2023-04-15T02:01:09;2.90;;;0.65;;
68633;SDS011;55625;47.072;22.192;2023-04-15T02:03:36;1.77;;;0.97;;
68633;SDS011;55625;47.072;22.192;2023-04-15T02:06:03;3.33;;;1.52;;
68633;SDS011;55625;47.072;22.192;2023-04-15T02:08:30;4.72;;;1.40;;
68633;SDS011;55625;47.072;22.192;2023-04-15T02:10:55;4.05;;;1.65;;
68633;SDS011;55625;47.072;22.192;2023-04-15T02:13:22;3.07;;;1.67;;
68633;SDS011;55625;47.072;22.192;2023-04-15T02:15:48;1.63;;;0.40;;
68633;SDS011;55625;47.072;22.192;2023-04-15T02:18:15;2.65;;;0.93;;
68633;SDS011;55625;47.072;22.192;2023-04-15T02:20:41;2.63;;;0.85;;
68633;SDS011;55625;47.072;22.192;2023-04-15T02:23:11;1.40;;;0.37;;
68633;SDS011;55625;47.072;22.192;2023-04-15T02:25:37;1.25;;;0.50;;
68633;SDS011;55625;47.072;22.192;2023-04-15T02:28:06;4.57;;;2.28;;
68633;SDS011;55625;47.072;22.192;2023-04-15T02:30:32;3.10;;;1.55;;
68633;SDS011;55625;47.072;22.192;2023-04-15T02:32:58;1.95;;;0.73;;
68633;SDS011;55625;47.072;22.192;2023-04-15T02:35:25;5.83;;;1.83;;
68633;SDS011;55625;47.072;22.192;2023-04-15T02:37:51;1.88;;;0.75;;
68633;SDS011;55625;47.072;22.192;2023-04-15T02:40:17;2.05;;;0.88;;
68633;SDS011;55625;47.072;22.192;2023-04-15T02:42:43;1.67;;;0.85;;
68633;SDS011;55625;47.072;22.192;2023-04-15T02:45:09;2.60;;;0.57;;
68633;SDS011;55625;47.072;22.192;2023-04-15T02:47:38;1.45;;;0.57;;
68633;SDS011;55625;47.072;22.192;2023-04-15T02:50:08;3.72;;;1.85;;
68633;SDS011;55625;47.072;22.192;2023-04-15T02:52:37;2.13;;;1.55;;
68633;SDS011;55625;47.072;22.192;2023-04-15T02:55:07;2.65;;;0.95;;
68633;SDS011;55625;47.072;22.192;2023-04-15T02:57:34;2.30;;;1.53;;
68633;SDS011;55625;47.072;22.192;2023-04-15T03:00:05;2.45;;;1.00;;
68633;SDS011;55625;47.072;22.192;2023-04-15T03:02:37;5.60;;;0.85;;
68633;SDS011;55625;47.072;22.192;2023-04-15T03:05:04;1.73;;;1.00;;
68633;SDS011;55625;47.072;22.192;2023-04-15T03:07:31;1.27;;;0.57;;
68633;SDS011;55625;47.072;22.192;2023-04-15T03:09:57;2.17;;;0.90;;
68633;SDS011;55625;47.072;22.192;2023-04-15T03:12:22;2.88;;;1.30;;
68633;SDS011;55625;47.072;22.192;2023-04-15T03:14:48;1.75;;;1.33;;
68633;SDS011;55625;47.072;22.192;2023-04-15T03:17:14;3.03;;;1.15;;
68633;SDS011;55625;47.072;22.192;2023-04-15T03:19:41;2.27;;;1.00;;
68633;SDS011;55625;47.072;22.192;2023-04-15T03:22:08;1.85;;;1.30;;
68633;SDS011;55625;47.072;22.192;2023-04-15T03:24:33;3.63;;;1.23;;
68633;SDS011;55625;47.072;22.192;2023-04-15T03:26:59;1.50;;;0.82;;
68633;SDS011;55625;47.072;22.192;2023-04-15T03:29:26;2.53;;;1.00;;
68633;SDS011;55625;47.072;22.192;2023-04-15T03:31:51;1.58;;;0.60;;
68633;SDS011;55625;47.072;22.192;2023-04-15T03:34:18;5.13;;;1.52;;
68633;SDS011;55625;47.072;22.192;2023-04-15T03:36:44;2.90;;;1.42;;
68633;SDS011;55625;47.072;22.192;2023-04-15T03:39:11;2.27;;;1.07;;
68633;SDS011;55625;47.072;22.192;2023-04-15T03:41:37;2.65;;;0.90;;
68633;SDS011;55625;47.072;22.192;2023-04-15T03:44:02;2.13;;;1.13;;
68633;SDS011;55625;47.072;22.192;2023-04-15T03:46:28;1.23;;;0.77;;
68633;SDS011;55625;47.072;22.192;2023-04-15T03:48:54;2.80;;;1.70;;
68633;SDS011;55625;47.072;22.192;2023-04-15T03:51:20;2.75;;;1.33;;
68633;SDS011;55625;47.072;22.192;2023-04-15T03:53:46;1.90;;;1.07;;
68633;SDS011;55625;47.072;22.192;2023-04-15T03:56:13;2.20;;;0.88;;
68633;SDS011;55625;47.072;22.192;2023-04-15T03:58:39;3.17;;;1.67;;
68633;SDS011;55625;47.072;22.192;2023-04-15T04:01:04;1.90;;;0.83;;
68633;SDS011;55625;47.072;22.192;2023-04-15T04:03:30;0.90;;;0.22;;
68633;SDS011;55625;47.072;22.192;2023-04-15T04:05:57;3.03;;;1.35;;
68633;SDS011;55625;47.072;22.192;2023-04-15T04:08:23;1.95;;;0.93;;
68633;SDS011;55625;47.072;22.192;2023-04-15T04:10:51;2.30;;;1.15;;
68633;SDS011;55625;47.072;22.192;2023-04-15T04:13:17;3.67;;;1.27;;
68633;SDS011;55625;47.072;22.192;2023-04-15T04:15:42;2.42;;;0.80;;
68633;SDS011;55625;47.072;22.192;2023-04-15T04:18:08;2.65;;;0.98;;
68633;SDS011;55625;47.072;22.192;2023-04-15T04:20:34;1.30;;;0.70;;
68633;SDS011;55625;47.072;22.192;2023-04-15T04:23:00;1.77;;;0.95;;
68633;SDS011;55625;47.072;22.192;2023-04-15T04:25:26;1.35;;;0.63;;
68633;SDS011;55625;47.072;22.192;2023-04-15T04:27:52;1.30;;;0.40;;
68633;SDS011;55625;47.072;22.192;2023-04-15T04:30:18;2.63;;;1.33;;
68633;SDS011;55625;47.072;22.192;2023-04-15T04:32:43;2.33;;;1.35;;
68633;SDS011;55625;47.072;22.192;2023-04-15T04:35:09;3.40;;;0.87;;
68633;SDS011;55625;47.072;22.192;2023-04-15T04:37:36;1.88;;;1.17;;
68633;SDS011;55625;47.072;22.192;2023-04-15T04:40:01;2.22;;;1.08;;
68633;SDS011;55625;47.072;22.192;2023-04-15T04:42:28;1.45;;;0.63;;
68633;SDS011;55625;47.072;22.192;2023-04-15T04:44:55;1.80;;;0.43;;
68633;SDS011;55625;47.072;22.192;2023-04-15T04:47:21;3.70;;;0.77;;
68633;SDS011;55625;47.072;22.192;2023-04-15T04:49:47;1.85;;;1.17;;
68633;SDS011;55625;47.072;22.192;2023-04-15T04:52:13;1.90;;;1.30;;
68633;SDS011;55625;47.072;22.192;2023-04-15T04:54:38;4.30;;;1.27;;
68633;SDS011;55625;47.072;22.192;2023-04-15T04:57:05;5.82;;;2.10;;
68633;SDS011;55625;47.072;22.192;2023-04-15T04:59:32;1.77;;;1.13;;
68633;SDS011;55625;47.072;22.192;2023-04-15T05:01:58;3.10;;;2.08;;
68633;SDS011;55625;47.072;22.192;2023-04-15T05:04:23;4.23;;;2.00;;
68633;SDS011;55625;47.072;22.192;2023-04-15T05:06:50;3.42;;;2.88;;
68633;SDS011;55625;47.072;22.192;2023-04-15T05:09:16;5.25;;;1.95;;
68633;SDS011;55625;47.072;22.192;2023-04-15T05:11:42;5.13;;;1.60;;
68633;SDS011;55625;47.072;22.192;2023-04-15T05:14:07;2.97;;;1.67;;
68633;SDS011;55625;47.072;22.192;2023-04-15T05:16:33;2.38;;;1.25;;
68633;SDS011;55625;47.072;22.192;2023-04-15T05:18:59;3.43;;;1.10;;
68633;SDS011;55625;47.072;22.192;2023-04-15T05:21:25;4.47;;;2.47;;
68633;SDS011;55625;47.072;22.192;2023-04-15T05:23:51;2.45;;;1.35;;
68633;SDS011;55625;47.072;22.192;2023-04-15T05:26:17;2.77;;;1.80;;
68633;SDS011;55625;47.072;22.192;2023-04-15T05:28:43;3.00;;;1.48;;
68633;SDS011;55625;47.072;22.192;2023-04-15T05:31:09;2.85;;;1.20;;
68633;SDS011;55625;47.072;22.192;2023-04-15T05:33:35;5.47;;;1.80;;
68633;SDS011;55625;47.072;22.192;2023-04-15T05:36:01;2.88;;;1.42;;
68633;SDS011;55625;47.072;22.192;2023-04-15T05:38:27;2.30;;;1.60;;
68633;SDS011;55625;47.072;22.192;2023-04-15T05:40:52;3.50;;;1.90;;
68633;SDS011;55625;47.072;22.192;2023-04-15T05:43:18;2.50;;;1.20;;
68633;SDS011;55625;47.072;22.192;2023-04-15T05:45:44;2.65;;;2.20;;
68633;SDS011;55625;47.072;22.192;2023-04-15T05:48:10;3.15;;;2.00;;
68633;SDS011;55625;47.072;22.192;2023-04-15T05:50:36;6.30;;;3.20;;
68633;SDS011;55625;47.072;22.192;2023-04-15T05:53:05;6.93;;;2.75;;
68633;SDS011;55625;47.072;22.192;2023-04-15T05:55:31;3.70;;;1.45;;
68633;SDS011;55625;47.072;22.192;2023-04-15T05:57:57;4.40;;;2.10;;
68633;SDS011;55625;47.072;22.192;2023-04-15T06:00:22;4.90;;;2.80;;
68633;SDS011;55625;47.072;22.192;2023-04-15T06:02:48;4.70;;;2.08;;
68633;SDS011;55625;47.072;22.192;2023-04-15T06:05:14;4.20;;;2.33;;
68633;SDS011;55625;47.072;22.192;2023-04-15T06:07:40;2.63;;;1.57;;
68633;SDS011;55625;47.072;22.192;2023-04-15T06:10:08;5.95;;;3.38;;
68633;SDS011;55625;47.072;22.192;2023-04-15T06:12:34;2.95;;;1.40;;
68633;SDS011;55625;47.072;22.192;2023-04-15T06:15:00;2.45;;;1.40;;
68633;SDS011;55625;47.072;22.192;2023-04-15T06:17:26;4.63;;;2.80;;
68633;SDS011;55625;47.072;22.192;2023-04-15T06:19:52;4.03;;;1.42;;
68633;SDS011;55625;47.072;22.192;2023-04-15T06:22:23;4.50;;;2.20;;
68633;SDS011;55625;47.072;22.192;2023-04-15T06:24:49;4.28;;;1.73;;
68633;SDS011;55625;47.072;22.192;2023-04-15T06:27:15;5.05;;;3.42;;
68633;SDS011;55625;47.072;22.192;2023-04-15T06:29:41;5.17;;;2.70;;
68633;SDS011;55625;47.072;22.192;2023-04-15T06:32:07;13.68;;;3.47;;
68633;SDS011;55625;47.072;22.192;2023-04-15T06:34:33;7.47;;;4.05;;
68633;SDS011;55625;47.072;22.192;2023-04-15T06:36:59;4.78;;;2.72;;
68633;SDS011;55625;47.072;22.192;2023-04-15T06:39:25;5.77;;;2.77;;
68633;SDS011;55625;47.072;22.192;2023-04-15T06:41:51;6.28;;;4.20;;
68633;SDS011;55625;47.072;22.192;2023-04-15T06:44:17;6.65;;;2.15;;
68633;SDS011;55625;47.072;22.192;2023-04-15T06:46:43;4.13;;;2.42;;
68633;SDS011;55625;47.072;22.192;2023-04-15T06:49:09;7.00;;;3.30;;
68633;SDS011;55625;47.072;22.192;2023-04-15T06:51:36;6.45;;;3.63;;
68633;SDS011;55625;47.072;22.192;2023-04-15T06:54:02;4.97;;;2.42;;
68633;SDS011;55625;47.072;22.192;2023-04-15T06:56:33;2.35;;;1.33;;
68633;SDS011;55625;47.072;22.192;2023-04-15T06:58:59;6.40;;;2.77;;
68633;SDS011;55625;47.072;22.192;2023-04-15T07:01:25;10.63;;;4.60;;
68633;SDS011;55625;47.072;22.192;2023-04-15T07:03:51;4.38;;;2.28;;
68633;SDS011;55625;47.072;22.192;2023-04-15T07:06:17;1.43;;;0.43;;
68633;SDS011;55625;47.072;22.192;2023-04-15T07:08:43;7.93;;;1.67;;
68633;SDS011;55625;47.072;22.192;2023-04-15T07:11:09;4.30;;;1.27;;
68633;SDS011;55625;47.072;22.192;2023-04-15T07:13:35;1.88;;;0.55;;
68633;SDS011;55625;47.072;22.192;2023-04-15T07:16:01;2.93;;;1.20;;
68633;SDS011;55625;47.072;22.192;2023-04-15T07:18:27;4.70;;;1.85;;
68633;SDS011;55625;47.072;22.192;2023-04-15T07:20:53;3.90;;;1.58;;
68633;SDS011;55625;47.072;22.192;2023-04-15T07:23:18;1.43;;;0.73;;
68633;SDS011;55625;47.072;22.192;2023-04-15T07:25:45;2.10;;;1.00;;
68633;SDS011;55625;47.072;22.192;2023-04-15T07:28:11;4.00;;;1.33;;
68633;SDS011;55625;47.072;22.192;2023-04-15T07:30:37;1.47;;;0.57;;
68633;SDS011;55625;47.072;22.192;2023-04-15T07:33:03;1.38;;;0.60;;
68633;SDS011;55625;47.072;22.192;2023-04-15T07:35:29;1.42;;;0.47;;
68633;SDS011;55625;47.072;22.192;2023-04-15T07:37:55;1.00;;;0.35;;
68633;SDS011;55625;47.072;22.192;2023-04-15T07:40:21;1.93;;;0.60;;
68633;SDS011;55625;47.072;22.192;2023-04-15T07:42:47;1.38;;;0.68;;
68633;SDS011;55625;47.072;22.192;2023-04-15T07:45:13;1.30;;;0.82;;
68633;SDS011;55625;47.072;22.192;2023-04-15T07:47:40;1.50;;;0.95;;
68633;SDS011;55625;47.072;22.192;2023-04-15T07:50:07;1.23;;;0.30;;
68633;SDS011;55625;47.072;22.192;2023-04-15T07:52:35;1.20;;;0.63;;
68633;SDS011;55625;47.072;22.192;2023-04-15T07:55:03;1.02;;;0.40;;
68633;SDS011;55625;47.072;22.192;2023-04-15T07:57:32;4.38;;;1.75;;
68633;SDS011;55625;47.072;22.192;2023-04-15T07:59:59;3.17;;;1.27;;
68633;SDS011;55625;47.072;22.192;2023-04-15T08:02:27;1.13;;;0.43;;
68633;SDS011;55625;47.072;22.192;2023-04-15T08:04:53;1.20;;;0.40;;
68633;SDS011;55625;47.072;22.192;2023-04-15T08:07:19;1.27;;;0.52;;
68633;SDS011;55625;47.072;22.192;2023-04-15T08:09:45;1.50;;;0.65;;
68633;SDS011;55625;47.072;22.192;2023-04-15T08:12:11;1.00;;;0.50;;
68633;SDS011;55625;47.072;22.192;2023-04-15T08:14:37;1.92;;;0.90;;
68633;SDS011;55625;47.072;22.192;2023-04-15T08:17:04;1.17;;;0.63;;
68633;SDS011;55625;47.072;22.192;2023-04-15T08:19:30;1.17;;;0.32;;
68633;SDS011;55625;47.072;22.192;2023-04-15T08:21:56;1.50;;;0.60;;
68633;SDS011;55625;47.072;22.192;2023-04-15T08:24:23;1.83;;;0.70;;
68633;SDS011;55625;47.072;22.192;2023-04-15T08:26:50;3.50;;;1.08;;
68633;SDS011;55625;47.072;22.192;2023-04-15T08:29:16;1.70;;;0.88;;
68633;SDS011;55625;47.072;22.192;2023-04-15T08:31:43;4.78;;;0.47;;
68633;SDS011;55625;47.072;22.192;2023-04-15T08:34:12;1.33;;;0.50;;
68633;SDS011;55625;47.072;22.192;2023-04-15T08:36:39;2.65;;;0.60;;
68633;SDS011;55625;47.072;22.192;2023-04-15T08:39:05;1.40;;;0.82;;
68633;SDS011;55625;47.072;22.192;2023-04-15T08:41:33;1.30;;;0.70;;
68633;SDS011;55625;47.072;22.192;2023-04-15T08:44:33;1.13;;;0.40;;
68633;SDS011;55625;47.072;22.192;2023-04-15T08:47:01;1.73;;;0.70;;
68633;SDS011;55625;47.072;22.192;2023-04-15T08:49:28;3.10;;;0.88;;
68633;SDS011;55625;47.072;22.192;2023-04-15T08:51:54;1.85;;;0.93;;
68633;SDS011;55625;47.072;22.192;2023-04-15T08:54:23;0.90;;;0.43;;
68633;SDS011;55625;47.072;22.192;2023-04-15T08:56:49;1.05;;;0.30;;
68633;SDS011;55625;47.072;22.192;2023-04-15T08:59:16;3.13;;;0.93;;
68633;SDS011;55625;47.072;22.192;2023-04-15T09:01:43;1.80;;;0.90;;
68633;SDS011;55625;47.072;22.192;2023-04-15T09:04:10;1.13;;;0.50;;
68633;SDS011;55625;47.072;22.192;2023-04-15T09:06:36;1.30;;;0.57;;
68633;SDS011;55625;47.072;22.192;2023-04-15T09:09:04;1.20;;;0.38;;
68633;SDS011;55625;47.072;22.192;2023-04-15T09:11:30;1.40;;;0.70;;
68633;SDS011;55625;47.072;22.192;2023-04-15T09:13:56;1.17;;;0.43;;
68633;SDS011;55625;47.072;22.192;2023-04-15T09:16:22;1.35;;;0.40;;
68633;SDS011;55625;47.072;22.192;2023-04-15T09:18:48;2.70;;;0.37;;
68633;SDS011;55625;47.072;22.192;2023-04-15T09:21:15;1.08;;;0.47;;
68633;SDS011;55625;47.072;22.192;2023-04-15T09:23:55;1.38;;;0.75;;
68633;SDS011;55625;47.072;22.192;2023-04-15T09:26:30;1.67;;;0.70;;
68633;SDS011;55625;47.072;22.192;2023-04-15T09:29:01;1.30;;;0.50;;
68633;SDS011;55625;47.072;22.192;2023-04-15T09:31:32;1.20;;;0.30;;
68633;SDS011;55625;47.072;22.192;2023-04-15T09:33:58;1.80;;;0.57;;
68633;SDS011;55625;47.072;22.192;2023-04-15T09:36:24;1.10;;;0.52;;
68633;SDS011;55625;47.072;22.192;2023-04-15T09:38:54;1.08;;;0.30;;
68633;SDS011;55625;47.072;22.192;2023-04-15T09:41:22;1.40;;;0.68;;
68633;SDS011;55625;47.072;22.192;2023-04-15T09:43:49;2.43;;;0.63;;
68633;SDS011;55625;47.072;22.192;2023-04-15T09:46:15;1.10;;;0.43;;
68633;SDS011;55625;47.072;22.192;2023-04-15T09:48:41;1.42;;;0.68;;
68633;SDS011;55625;47.072;22.192;2023-04-15T09:51:07;1.20;;;0.87;;
68633;SDS011;55625;47.072;22.192;2023-04-15T09:53:34;1.00;;;0.27;;
68633;SDS011;55625;47.072;22.192;2023-04-15T09:56:01;1.15;;;0.50;;
68633;SDS011;55625;47.072;22.192;2023-04-15T09:58:28;1.17;;;0.60;;
68633;SDS011;55625;47.072;22.192;2023-04-15T10:00:57;2.22;;;0.90;;
68633;SDS011;55625;47.072;22.192;2023-04-15T10:03:30;3.97;;;0.68;;
68633;SDS011;55625;47.072;22.192;2023-04-15T10:06:02;1.47;;;0.80;;
68633;SDS011;55625;47.072;22.192;2023-04-15T10:08:30;1.20;;;0.63;;
68633;SDS011;55625;47.072;22.192;2023-04-15T10:10:58;1.63;;;0.75;;
68633;SDS011;55625;47.072;22.192;2023-04-15T10:13:28;1.67;;;0.60;;
68633;SDS011;55625;47.072;22.192;2023-04-15T10:16:13;1.40;;;0.50;;
68633;SDS011;55625;47.072;22.192;2023-04-15T10:18:44;1.47;;;0.73;;
68633;SDS011;55625;47.072;22.192;2023-04-15T10:21:15;2.03;;;0.85;;
68633;SDS011;55625;47.072;22.192;2023-04-15T10:23:43;1.30;;;0.63;;
68633;SDS011;55625;47.072;22.192;2023-04-15T10:26:11;1.17;;;0.63;;
68633;SDS011;55625;47.072;22.192;2023-04-15T10:28:39;1.35;;;0.50;;
68633;SDS011;55625;47.072;22.192;2023-04-15T10:31:05;1.10;;;0.50;;
68633;SDS011;55625;47.072;22.192;2023-04-15T10:33:32;1.67;;;0.70;;
68633;SDS011;55625;47.072;22.192;2023-04-15T10:35:59;1.27;;;0.65;;
68633;SDS011;55625;47.072;22.192;2023-04-15T10:38:36;0.95;;;0.20;;
68633;SDS011;55625;47.072;22.192;2023-04-15T10:41:11;1.10;;;0.45;;
68633;SDS011;55625;47.072;22.192;2023-04-15T10:43:55;1.10;;;0.40;;
68633;SDS011;55625;47.072;22.192;2023-04-15T10:49:10;1.15;;;0.40;;
68633;SDS011;55625;47.072;22.192;2023-04-15T10:51:45;1.20;;;0.55;;
68633;SDS011;55625;47.072;22.192;2023-04-15T10:54:17;1.00;;;0.38;;
68633;SDS011;55625;47.072;22.192;2023-04-15T10:59:30;0.90;;;0.30;;
68633;SDS011;55625;47.072;22.192;2023-04-15T11:12:46;1.13;;;0.63;;
68633;SDS011;55625;47.072;22.192;2023-04-15T11:18:14;2.45;;;0.30;;
68633;SDS011;55625;47.072;22.192;2023-04-15T11:20:56;1.98;;;0.88;;
68633;SDS011;55625;47.072;22.192;2023-04-15T11:23:38;1.10;;;0.37;;
68633;SDS011;55625;47.072;22.192;2023-04-15T11:26:10;1.08;;;0.30;;
68633;SDS011;55625;47.072;22.192;2023-04-15T11:28:38;0.80;;;0.10;;
68633;SDS011;55625;47.072;22.192;2023-04-15T11:31:07;1.17;;;0.60;;
68633;SDS011;55625;47.072;22.192;2023-04-15T11:33:57;1.23;;;0.68;;
68633;SDS011;55625;47.072;22.192;2023-04-15T11:36:25;1.00;;;0.13;;
68633;SDS011;55625;47.072;22.192;2023-04-15T11:38:53;1.27;;;0.30;;
68633;SDS011;55625;47.072;22.192;2023-04-15T11:41:24;0.95;;;0.35;;
68633;SDS011;55625;47.072;22.192;2023-04-15T11:43:50;1.08;;;0.50;;
68633;SDS011;55625;47.072;22.192;2023-04-15T11:46:17;1.15;;;0.52;;
68633;SDS011;55625;47.072;22.192;2023-04-15T11:48:44;1.43;;;1.13;;
68633;SDS011;55625;47.072;22.192;2023-04-15T11:51:11;0.88;;;0.28;;
68633;SDS011;55625;47.072;22.192;2023-04-15T11:56:18;1.17;;;0.77;;
68633;SDS011;55625;47.072;22.192;2023-04-15T11:58:47;1.25;;;0.57;;
68633;SDS011;55625;47.072;22.192;2023-04-15T12:01:16;1.57;;;0.40;;
68633;SDS011;55625;47.072;22.192;2023-04-15T12:03:46;1.77;;;0.85;;
68633;SDS011;55625;47.072;22.192;2023-04-15T12:06:22;1.20;;;0.35;;
68633;SDS011;55625;47.072;22.192;2023-04-15T12:08:55;1.00;;;0.30;;
68633;SDS011;55625;47.072;22.192;2023-04-15T12:16:41;1.23;;;0.50;;
68633;SDS011;55625;47.072;22.192;2023-04-15T12:19:11;1.05;;;0.50;;
68633;SDS011;55625;47.072;22.192;2023-04-15T12:21:40;1.00;;;0.47;;
68633;SDS011;55625;47.072;22.192;2023-04-15T12:24:10;1.30;;;0.55;;
68633;SDS011;55625;47.072;22.192;2023-04-15T12:26:44;0.83;;;0.30;;
68633;SDS011;55625;47.072;22.192;2023-04-15T12:29:13;1.30;;;0.32;;
68633;SDS011;55625;47.072;22.192;2023-04-15T12:31:52;1.33;;;0.47;;
68633;SDS011;55625;47.072;22.192;2023-04-15T12:37:03;1.48;;;0.30;;
68633;SDS011;55625;47.072;22.192;2023-04-15T12:39:31;2.07;;;0.83;;
68633;SDS011;55625;47.072;22.192;2023-04-15T12:42:02;1.25;;;0.65;;
68633;SDS011;55625;47.072;22.192;2023-04-15T12:44:29;1.52;;;0.95;;
68633;SDS011;55625;47.072;22.192;2023-04-15T12:46:55;1.15;;;0.28;;
68633;SDS011;55625;47.072;22.192;2023-04-15T12:49:22;1.40;;;0.60;;
68633;SDS011;55625;47.072;22.192;2023-04-15T12:51:49;1.47;;;0.63;;
68633;SDS011;55625;47.072;22.192;2023-04-15T12:54:20;1.52;;;0.13;;
68633;SDS011;55625;47.072;22.192;2023-04-15T12:56:46;4.25;;;0.82;;
68633;SDS011;55625;47.072;22.192;2023-04-15T12:59:14;1.23;;;0.55;;
68633;SDS011;55625;47.072;22.192;2023-04-15T13:01:42;1.08;;;0.40;;
68633;SDS011;55625;47.072;22.192;2023-04-15T13:04:09;1.10;;;0.30;;
68633;SDS011;55625;47.072;22.192;2023-04-15T13:06:35;1.17;;;0.28;;
68633;SDS011;55625;47.072;22.192;2023-04-15T13:09:02;1.45;;;0.70;;
68633;SDS011;55625;47.072;22.192;2023-04-15T13:11:29;1.42;;;0.57;;
68633;SDS011;55625;47.072;22.192;2023-04-15T13:13:59;1.10;;;0.35;;
68633;SDS011;55625;47.072;22.192;2023-04-15T13:16:30;1.00;;;0.40;;
68633;SDS011;55625;47.072;22.192;2023-04-15T13:18:57;1.02;;;0.40;;
68633;SDS011;55625;47.072;22.192;2023-04-15T13:21:23;0.93;;;0.20;;
68633;SDS011;55625;47.072;22.192;2023-04-15T13:23:49;2.80;;;0.90;;
68633;SDS011;55625;47.072;22.192;2023-04-15T13:26:16;2.13;;;0.83;;
68633;SDS011;55625;47.072;22.192;2023-04-15T13:28:43;0.90;;;0.22;;
68633;SDS011;55625;47.072;22.192;2023-04-15T13:31:09;1.08;;;0.38;;
68633;SDS011;55625;47.072;22.192;2023-04-15T13:33:35;2.70;;;0.50;;
68633;SDS011;55625;47.072;22.192;2023-04-15T13:36:01;0.90;;;0.20;;
68633;SDS011;55625;47.072;22.192;2023-04-15T13:38:27;0.77;;;0.20;;
68633;SDS011;55625;47.072;22.192;2023-04-15T13:40:53;1.20;;;0.57;;
68633;SDS011;55625;47.072;22.192;2023-04-15T13:43:19;1.40;;;0.40;;
68633;SDS011;55625;47.072;22.192;2023-04-15T13:45:45;1.30;;;0.50;;
68633;SDS011;55625;47.072;22.192;2023-04-15T13:48:11;1.05;;;0.60;;
68633;SDS011;55625;47.072;22.192;2023-04-15T13:50:38;1.50;;;0.52;;
68633;SDS011;55625;47.072;22.192;2023-04-15T13:53:05;1.20;;;0.57;;
68633;SDS011;55625;47.072;22.192;2023-04-15T13:55:31;0.70;;;0.10;;
68633;SDS011;55625;47.072;22.192;2023-04-15T13:57:59;0.70;;;0.10;;
68633;SDS011;55625;47.072;22.192;2023-04-15T14:00:24;0.90;;;0.20;;
68633;SDS011;55625;47.072;22.192;2023-04-15T14:02:50;1.08;;;0.35;;
68633;SDS011;55625;47.072;22.192;2023-04-15T14:05:16;1.17;;;0.37;;
68633;SDS011;55625;47.072;22.192;2023-04-15T14:07:42;1.10;;;0.52;;
68633;SDS011;55625;47.072;22.192;2023-04-15T14:10:08;1.25;;;0.60;;
68633;SDS011;55625;47.072;22.192;2023-04-15T14:12:34;1.03;;;0.50;;
68633;SDS011;55625;47.072;22.192;2023-04-15T14:15:00;2.80;;;0.13;;
68633;SDS011;55625;47.072;22.192;2023-04-15T14:17:26;2.95;;;0.60;;
68633;SDS011;55625;47.072;22.192;2023-04-15T14:19:52;1.10;;;0.50;;
68633;SDS011;55625;47.072;22.192;2023-04-15T14:22:18;2.70;;;0.50;;
68633;SDS011;55625;47.072;22.192;2023-04-15T14:24:44;1.73;;;0.30;;
68633;SDS011;55625;47.072;22.192;2023-04-15T14:27:10;1.02;;;0.45;;
68633;SDS011;55625;47.072;22.192;2023-04-15T14:29:36;1.20;;;0.40;;
68633;SDS011;55625;47.072;22.192;2023-04-15T14:32:02;1.00;;;0.35;;
68633;SDS011;55625;47.072;22.192;2023-04-15T14:34:28;0.90;;;0.30;;
68633;SDS011;55625;47.072;22.192;2023-04-15T14:36:55;0.80;;;0.20;;
68633;SDS011;55625;47.072;22.192;2023-04-15T14:39:20;1.73;;;0.45;;
68633;SDS011;55625;47.072;22.192;2023-04-15T14:41:46;0.80;;;0.13;;
68633;SDS011;55625;47.072;22.192;2023-04-15T14:44:13;1.02;;;0.55;;
68633;SDS011;55625;47.072;22.192;2023-04-15T14:46:39;1.23;;;0.63;;
68633;SDS011;55625;47.072;22.192;2023-04-15T14:49:05;1.20;;;0.82;;
68633;SDS011;55625;47.072;22.192;2023-04-15T14:51:32;1.10;;;0.67;;
68633;SDS011;55625;47.072;22.192;2023-04-15T14:53:57;0.95;;;0.40;;
68633;SDS011;55625;47.072;22.192;2023-04-15T14:56:24;0.98;;;0.30;;
68633;SDS011;55625;47.072;22.192;2023-04-15T14:58:51;1.00;;;0.20;;
68633;SDS011;55625;47.072;22.192;2023-04-15T15:01:18;0.83;;;0.33;;
68633;SDS011;55625;47.072;22.192;2023-04-15T15:03:44;0.85;;;0.30;;